createdAt,value
2018-01-21T00:02:02.705Z,95180.94
2018-01-21T00:04:30.390Z,95184.27
2018-01-21T00:06:58.177Z,95193.00
2018-01-21T00:09:25.913Z,95189.67
2018-01-21T00:11:54.320Z,95202.58
2018-01-21T00:14:23.620Z,95201.70
2018-01-21T00:16:52.291Z,95205.06
2018-01-21T00:19:24.828Z,95210.05
2018-01-21T00:21:55.950Z,95213.38
2018-01-21T00:24:26.274Z,95208.38
2018-01-21T00:26:54.756Z,95199.61
2018-01-21T00:29:24.332Z,95198.36
2018-01-21T00:31:52.068Z,95202.52
2018-01-21T00:34:19.840Z,95207.11
2018-01-21T00:36:47.533Z,95207.95
2018-01-21T00:39:16.039Z,95215.80
2018-01-21T00:41:43.749Z,95224.16
2018-01-21T00:44:11.489Z,95229.89
2018-01-21T00:46:39.306Z,95228.20
2018-01-21T00:49:07.121Z,95237.75
2018-01-21T00:51:36.613Z,95239.85
2018-01-21T00:54:04.380Z,95246.48
2018-01-21T00:56:32.309Z,95245.63
2018-01-21T00:59:00.183Z,95259.00
2018-01-21T01:01:27.912Z,95265.62
2018-01-21T01:03:55.568Z,95266.06
2018-01-21T01:06:23.237Z,95267.77
2018-01-21T01:08:51.008Z,95276.55
2018-01-21T01:11:18.679Z,95283.22
2018-01-21T01:13:46.365Z,95290.72
2018-01-21T01:16:14.011Z,95298.25
2018-01-21T01:18:41.704Z,95310.31
2018-01-21T01:21:09.392Z,95310.31
2018-01-21T01:23:38.180Z,95324.06
2018-01-21T01:26:06.097Z,95331.55
2018-01-21T01:28:33.921Z,95334.88
2018-01-21T01:31:04.132Z,95344.49
2018-01-21T01:33:32.874Z,95349.87
2018-01-21T01:36:01.074Z,95372.36
2018-01-21T01:38:28.972Z,95371.14
2018-01-21T01:40:57.022Z,95380.71
2018-01-21T01:43:25.826Z,95382.41
2018-01-21T01:45:55.332Z,95384.05
2018-01-21T01:48:23.026Z,95386.58
2018-01-21T01:50:50.840Z,95393.23
2018-01-21T01:53:21.231Z,95394.03
2018-01-21T01:55:49.296Z,95411.55
2018-01-21T01:58:17.032Z,95403.23
2018-01-21T02:00:44.722Z,95409.93
2018-01-21T02:03:12.410Z,95417.42
2018-01-21T02:05:40.287Z,95424.07
2018-01-21T02:08:08.070Z,95429.90
2018-01-21T02:10:35.688Z,95430.72
2018-01-21T02:13:03.364Z,95432.40
2018-01-21T02:15:31.120Z,95438.22
2018-01-21T02:17:58.832Z,95444.04
2018-01-21T02:20:28.236Z,95452.79
2018-01-21T02:22:56.098Z,95458.61
2018-01-21T02:25:25.576Z,95460.69
2018-01-21T02:27:53.314Z,95475.66
2018-01-21T02:30:21.074Z,95471.08
2018-01-21T02:32:48.788Z,95489.00
2018-01-21T02:35:16.440Z,95496.05
2018-01-21T02:37:44.145Z,95509.37
2018-01-21T02:40:11.805Z,95508.12
2018-01-21T02:42:39.486Z,95508.55
2018-01-21T02:45:07.988Z,95510.16
2018-01-21T02:47:35.675Z,95520.59
2018-01-21T02:50:03.356Z,95524.73
2018-01-21T02:52:32.752Z,95535.58
2018-01-21T02:55:00.502Z,95548.08
2018-01-21T02:57:28.176Z,95553.50
2018-01-21T02:59:55.856Z,95560.97
2018-01-21T03:02:23.791Z,95572.23
2018-01-21T03:04:54.141Z,95573.89
2018-01-21T03:07:21.901Z,95586.45
2018-01-21T03:09:49.608Z,95582.70
2018-01-21T03:12:17.255Z,95582.27
2018-01-21T03:14:44.968Z,95592.29
2018-01-21T03:17:12.594Z,95593.54
2018-01-21T03:19:40.580Z,95600.22
2018-01-21T03:22:08.239Z,95606.04
2018-01-21T03:24:35.912Z,95610.64
2018-01-21T03:27:03.598Z,95618.16
2018-01-21T03:29:31.332Z,95622.28
2018-01-21T03:31:59.028Z,95631.82
2018-01-21T03:34:26.726Z,95634.32
2018-01-21T03:36:54.416Z,95646.45
2018-01-21T03:39:22.078Z,95652.67
2018-01-21T03:41:51.610Z,95648.06
2018-01-21T03:44:19.298Z,95650.56
2018-01-21T03:46:49.652Z,95653.03
2018-01-21T03:49:17.478Z,95658.06
2018-01-21T03:51:45.210Z,95664.70
2018-01-21T03:54:13.606Z,95675.95
2018-01-21T03:56:41.342Z,95683.81
2018-01-21T03:59:09.086Z,95690.86
2018-01-21T04:01:36.774Z,95691.65
2018-01-21T04:04:04.493Z,95697.89
2018-01-21T04:06:33.750Z,95700.36
2018-01-21T04:09:01.693Z,95701.25
2018-01-21T04:11:29.363Z,95706.67
2018-01-21T04:13:57.122Z,95718.28
2018-01-21T04:16:25.640Z,95723.70
2018-01-21T04:18:53.286Z,95729.07
2018-01-21T04:21:20.958Z,95732.81
2018-01-21T04:23:48.653Z,95736.53
2018-01-21T04:26:18.148Z,95740.70
2018-01-21T04:28:45.936Z,95748.23
2018-01-21T04:31:13.631Z,95748.70
2018-01-21T04:33:41.289Z,95756.20
2018-01-21T04:36:08.974Z,95765.73
2018-01-21T04:38:38.309Z,95766.16
2018-01-21T04:41:06.768Z,95774.91
2018-01-21T04:43:34.428Z,95774.91
2018-01-21T04:46:02.124Z,95784.94
2018-01-21T04:48:29.824Z,95787.43
2018-01-21T04:50:57.492Z,95791.25
2018-01-21T04:53:25.202Z,95800.39
2018-01-21T04:55:52.876Z,95793.31
2018-01-21T04:58:22.264Z,95803.67
2018-01-21T05:00:49.987Z,95808.31
2018-01-21T05:03:17.628Z,95805.39
2018-01-21T05:05:45.323Z,95811.70
2018-01-21T05:08:14.740Z,95816.70
2018-01-21T05:10:42.457Z,95826.73
2018-01-21T05:13:12.032Z,95826.70
2018-01-21T05:15:39.805Z,95826.73
2018-01-21T05:18:07.494Z,95833.80
2018-01-21T05:20:35.166Z,95838.80
2018-01-21T05:23:02.866Z,95850.47
2018-01-21T05:25:30.710Z,95845.94
2018-01-21T05:27:58.391Z,95849.26
2018-01-21T05:30:26.065Z,95856.72
2018-01-21T05:32:53.744Z,95852.55
2018-01-21T05:35:21.432Z,95855.55
2018-01-21T05:37:49.124Z,95854.26
2018-01-21T05:40:18.546Z,95850.55
2018-01-21T05:42:46.510Z,95859.33
2018-01-21T05:45:14.212Z,95863.50
2018-01-21T05:47:43.688Z,95857.69
2018-01-21T05:50:11.481Z,95859.36
2018-01-21T05:52:39.169Z,95868.08
2018-01-21T05:55:07.605Z,95878.07
2018-01-21T05:57:35.256Z,95884.71
2018-01-21T06:00:02.931Z,95884.35
2018-01-21T06:02:30.600Z,95886.42
2018-01-21T06:04:58.262Z,95887.67
2018-01-21T06:07:25.922Z,95897.31
2018-01-21T06:09:55.271Z,95900.60
2018-01-21T06:12:22.996Z,95903.53
2018-01-21T06:14:50.697Z,95913.53
2018-01-21T06:17:20.275Z,95921.03
2018-01-21T06:19:50.090Z,95919.34
2018-01-21T06:22:17.781Z,95917.28
2018-01-21T06:24:45.437Z,95926.48
2018-01-21T06:27:13.250Z,95928.59
2018-01-21T06:29:42.659Z,95939.84
2018-01-21T06:32:10.371Z,95945.63
2018-01-21T06:34:38.953Z,95953.13
2018-01-21T06:37:09.275Z,95962.27
2018-01-21T06:39:36.945Z,95965.55
2018-01-21T06:42:08.585Z,95973.91
2018-01-21T06:44:36.288Z,95982.63
2018-01-21T06:47:04.015Z,95986.73
2018-01-21T06:49:31.687Z,95994.19
2018-01-21T06:51:59.424Z,95998.29
2018-01-21T06:54:27.783Z,96002.93
2018-01-21T06:56:55.582Z,96007.50
2018-01-21T06:59:23.255Z,96007.50
2018-01-21T07:01:50.898Z,96008.72
2018-01-21T07:04:18.669Z,96024.53
2018-01-21T07:06:46.347Z,96026.64
2018-01-21T07:09:14.045Z,96022.03
2018-01-21T07:11:41.763Z,96036.59
2018-01-21T07:14:12.044Z,96034.13
2018-01-21T07:16:39.729Z,96039.99
2018-01-21T07:19:10.271Z,96037.92
2018-01-21T07:21:37.965Z,96048.34
2018-01-21T07:24:07.337Z,96049.13
2018-01-21T07:26:35.245Z,96055.84
2018-01-21T07:29:02.933Z,96061.28
2018-01-21T07:31:30.668Z,96055.89
2018-01-21T07:33:58.317Z,96067.95
2018-01-21T07:36:25.977Z,96066.00
2018-01-21T07:38:54.631Z,96065.53
2018-01-21T07:41:24.917Z,96079.36
2018-01-21T07:43:52.682Z,96080.65
2018-01-21T07:46:20.649Z,96076.86
2018-01-21T07:48:48.417Z,96088.27
2018-01-21T07:51:16.837Z,96097.05
2018-01-21T07:53:44.557Z,96109.63
2018-01-21T07:56:13.264Z,96109.63
2018-01-21T07:58:42.543Z,96117.09
2018-01-21T08:01:10.245Z,96116.55
2018-01-21T08:03:37.935Z,96124.48
2018-01-21T08:06:05.705Z,96136.27
2018-01-21T08:08:36.176Z,96141.19
2018-01-21T08:11:03.899Z,96145.84
2018-01-21T08:13:33.338Z,96154.13
2018-01-21T08:16:01.766Z,96161.27
2018-01-21T08:18:29.460Z,96166.27
2018-01-21T08:20:58.974Z,96173.39
2018-01-21T08:23:26.794Z,96177.13
2018-01-21T08:25:56.253Z,96187.61
2018-01-21T08:28:23.972Z,96189.76
2018-01-21T08:30:53.460Z,96198.04
2018-01-21T08:33:21.204Z,96197.30
2018-01-21T08:35:54.475Z,96211.95
2018-01-21T08:38:28.700Z,96219.92
2018-01-21T08:41:01.827Z,96222.42
2018-01-21T08:43:30.356Z,96225.70
2018-01-21T08:45:58.000Z,96236.06
2018-01-21T08:48:25.697Z,96239.33
2018-01-21T08:50:55.189Z,96273.52
2018-01-21T08:53:23.798Z,96255.59
2018-01-21T08:55:51.664Z,96251.75
2018-01-21T08:58:19.390Z,96273.35
2018-01-21T09:00:47.132Z,96277.22
2018-01-21T09:03:14.965Z,96267.61
2018-01-21T09:05:42.810Z,96283.48
2018-01-21T09:08:12.264Z,96290.16
2018-01-21T09:10:41.692Z,96292.66
2018-01-21T09:13:09.468Z,96294.77
2018-01-21T09:15:37.388Z,96307.28
2018-01-21T09:18:05.080Z,96313.18
2018-01-21T09:20:33.636Z,96311.02
2018-01-21T09:23:02.462Z,96354.34
2018-01-21T09:25:32.020Z,96336.02
2018-01-21T09:27:59.814Z,96338.91
2018-01-21T09:30:27.766Z,96348.53
2018-01-21T09:32:55.752Z,96352.23
2018-01-21T09:35:23.461Z,96367.70
2018-01-21T09:37:53.760Z,96372.37
2018-01-21T09:40:21.506Z,96375.00
2018-01-21T09:42:52.478Z,96394.33
2018-01-21T09:45:27.821Z,96392.98
2018-01-21T09:48:04.876Z,96403.84
2018-01-21T09:50:35.482Z,96416.02
2018-01-21T09:53:04.438Z,96419.05
2018-01-21T09:55:32.970Z,96438.05
2018-01-21T09:58:00.687Z,96428.18
2018-01-21T10:00:28.360Z,96438.95
2018-01-21T10:02:56.019Z,96443.53
2018-01-21T10:05:27.583Z,96445.98
2018-01-21T10:07:58.096Z,96446.84
2018-01-21T10:10:25.868Z,96440.20
2018-01-21T10:12:53.601Z,96449.44
2018-01-21T10:15:21.267Z,96449.87
2018-01-21T10:17:49.343Z,96453.70
2018-01-21T10:20:18.429Z,96456.20
2018-01-21T10:22:46.071Z,96457.95
2018-01-21T10:25:14.089Z,96456.51
2018-01-21T10:27:42.677Z,96464.92
2018-01-21T10:30:10.446Z,96476.27
2018-01-21T10:32:38.154Z,96484.25
2018-01-21T10:35:05.975Z,96489.93
2018-01-21T10:37:33.678Z,96489.41
2018-01-21T10:40:02.215Z,96493.98
2018-01-21T10:42:29.922Z,96492.34
2018-01-21T10:44:58.360Z,96501.05
2018-01-21T10:47:26.064Z,96506.09
2018-01-21T10:49:53.888Z,96504.70
2018-01-21T10:52:22.413Z,96522.22
2018-01-21T10:54:50.832Z,96525.56
2018-01-21T10:57:18.592Z,96531.88
2018-01-21T10:59:46.434Z,96538.46
2018-01-21T11:02:14.233Z,96547.70
2018-01-21T11:04:42.743Z,96546.11
2018-01-21T11:07:10.589Z,96545.16
2018-01-21T11:09:39.134Z,96552.79
2018-01-21T11:12:07.630Z,96561.50
2018-01-21T11:14:36.023Z,96567.84
2018-01-21T11:17:03.745Z,96564.77
2018-01-21T11:19:31.599Z,96566.08
2018-01-21T11:22:00.020Z,96583.23
2018-01-21T11:24:27.886Z,96586.51
2018-01-21T11:26:56.326Z,96590.79
2018-01-21T11:29:24.856Z,96596.09
2018-01-21T11:31:53.385Z,96604.50
2018-01-21T11:34:22.669Z,96605.70
2018-01-21T11:36:50.378Z,96614.95
2018-01-21T11:39:18.834Z,96620.31
2018-01-21T11:41:46.535Z,96630.33
2018-01-21T11:44:14.202Z,96634.89
2018-01-21T11:46:43.651Z,96634.89
2018-01-21T11:49:13.225Z,96637.88
2018-01-21T11:51:42.702Z,96649.41
2018-01-21T11:54:10.415Z,96644.75
2018-01-21T11:56:39.879Z,96651.05
2018-01-21T11:59:07.628Z,96653.16
2018-01-21T12:01:38.003Z,96656.44
2018-01-21T12:04:07.546Z,96666.06
2018-01-21T12:06:35.285Z,96661.87
2018-01-21T12:09:03.023Z,96666.78
2018-01-21T12:11:30.828Z,96675.04
2018-01-21T12:14:00.299Z,96675.95
2018-01-21T12:16:28.042Z,96682.16
2018-01-21T12:18:58.418Z,96696.31
2018-01-21T12:21:26.254Z,96698.33
2018-01-21T12:23:54.778Z,96709.52
2018-01-21T12:26:22.512Z,96709.84
2018-01-21T12:28:54.201Z,96718.50
2018-01-21T12:31:22.064Z,96728.61
2018-01-21T12:33:49.856Z,96731.92
2018-01-21T12:36:17.596Z,96732.20
2018-01-21T12:38:45.281Z,96743.12
2018-01-21T12:41:12.906Z,96746.06
2018-01-21T12:43:40.604Z,96752.70
2018-01-21T12:46:08.383Z,96757.74
2018-01-21T12:48:36.834Z,96761.45
2018-01-21T12:51:04.467Z,96763.89
2018-01-21T12:53:32.368Z,96776.33
2018-01-21T12:56:00.033Z,96765.89
2018-01-21T12:58:27.699Z,96778.41
2018-01-21T13:00:55.239Z,96777.97
2018-01-21T13:03:22.918Z,96776.72
2018-01-21T13:05:50.615Z,96791.18
2018-01-21T13:08:19.095Z,96792.86
2018-01-21T13:10:48.960Z,96795.37
2018-01-21T13:13:16.789Z,96793.58
2018-01-21T13:15:44.512Z,96790.73
2018-01-21T13:18:14.044Z,96794.50
2018-01-21T13:20:43.776Z,96798.78
2018-01-21T13:23:11.472Z,96805.86
2018-01-21T13:25:39.775Z,96800.85
2018-01-21T13:28:07.553Z,96812.49
2018-01-21T13:30:37.059Z,96817.98
2018-01-21T13:33:04.761Z,96822.16
2018-01-21T13:35:32.469Z,96830.58
2018-01-21T13:38:00.182Z,96834.55
2018-01-21T13:40:27.897Z,96836.58
2018-01-21T13:42:55.652Z,96848.58
2018-01-21T13:45:23.297Z,96852.32
2018-01-21T13:47:50.969Z,96850.69
2018-01-21T13:50:18.763Z,96847.10
2018-01-21T13:52:48.329Z,96848.95
2018-01-21T13:55:16.054Z,96850.81
2018-01-21T13:57:43.747Z,96852.94
2018-01-21T14:00:12.167Z,96862.60
2018-01-21T14:02:39.886Z,96865.39
2018-01-21T14:05:08.600Z,96871.31
2018-01-21T14:07:36.336Z,96875.05
2018-01-21T14:10:04.082Z,96872.12
2018-01-21T14:12:33.504Z,96886.69
2018-01-21T14:15:01.223Z,96886.25
2018-01-21T14:17:28.993Z,96889.47
2018-01-21T14:19:58.316Z,96892.13
2018-01-21T14:22:27.650Z,96906.32
2018-01-21T14:24:55.431Z,96899.95
2018-01-21T14:27:23.115Z,96907.45
2018-01-21T14:29:50.877Z,96909.64
2018-01-21T14:32:18.544Z,96911.92
2018-01-21T14:34:47.047Z,96917.00
2018-01-21T14:37:15.401Z,96910.74
2018-01-21T14:39:43.905Z,96927.70
2018-01-21T14:42:11.693Z,96934.22
2018-01-21T14:44:41.123Z,96936.11
2018-01-21T14:47:09.038Z,96943.47
2018-01-21T14:49:36.733Z,96945.02
2018-01-21T14:52:06.048Z,96947.67
2018-01-21T14:54:33.783Z,96956.31
2018-01-21T14:57:01.547Z,96960.67
2018-01-21T14:59:29.389Z,96966.94
2018-01-21T15:01:58.782Z,96973.23
2018-01-21T15:04:26.619Z,96974.50
2018-01-21T15:06:56.598Z,96981.67
2018-01-21T15:09:24.304Z,96983.41
2018-01-21T15:11:52.745Z,96983.67
2018-01-21T15:14:20.449Z,96996.51
2018-01-21T15:16:48.307Z,96998.11
2018-01-21T15:19:16.028Z,96996.63
2018-01-21T15:21:44.572Z,97004.92
2018-01-21T15:24:12.293Z,97005.81
2018-01-21T15:26:40.088Z,97011.14
2018-01-21T15:29:08.831Z,97022.65
2018-01-21T15:31:37.262Z,97021.72
2018-01-21T15:34:04.985Z,97024.16
2018-01-21T15:36:32.787Z,97026.20
2018-01-21T15:39:00.515Z,97026.20
2018-01-21T15:41:28.206Z,97028.59
2018-01-21T15:43:55.935Z,97031.45
2018-01-21T15:46:23.792Z,97034.91
2018-01-21T15:48:51.516Z,97027.48
2018-01-21T15:51:19.208Z,97031.66
2018-01-21T15:53:49.599Z,97049.45
2018-01-21T15:56:18.100Z,97052.22
2018-01-21T15:58:47.712Z,97057.27
2018-01-21T16:01:18.045Z,97066.33
2018-01-21T16:03:45.892Z,97065.88
2018-01-21T16:06:13.574Z,97070.47
2018-01-21T16:08:41.988Z,97072.03
2018-01-21T16:11:09.867Z,97062.16
2018-01-21T16:13:37.712Z,97062.35
2018-01-21T16:16:05.463Z,97072.28
2018-01-21T16:18:36.120Z,97076.14
2018-01-21T16:21:04.923Z,97081.20
2018-01-21T16:23:32.611Z,97095.43
2018-01-21T16:26:00.384Z,97095.06
2018-01-21T16:28:32.292Z,97090.44
2018-01-21T16:31:00.271Z,97096.63
2018-01-21T16:33:28.063Z,97094.93
2018-01-21T16:35:56.122Z,97101.17
2018-01-21T16:38:35.770Z,97102.49
2018-01-21T16:41:03.646Z,97107.82
2018-01-21T16:43:31.589Z,97105.67
2018-01-21T16:45:59.476Z,97105.91
2018-01-21T16:48:27.861Z,97107.61
2018-01-21T16:50:55.899Z,97110.05
2018-01-21T16:53:23.902Z,97116.67
2018-01-21T16:55:51.883Z,97120.05
2018-01-21T16:58:19.860Z,97127.53
2018-01-21T17:00:48.807Z,97132.09
2018-01-21T17:03:17.426Z,97132.02
2018-01-21T17:05:45.617Z,97131.95
2018-01-21T17:08:16.049Z,97133.95
2018-01-21T17:10:43.904Z,97129.58
2018-01-21T17:13:11.692Z,97137.77
2018-01-21T17:15:42.137Z,97132.63
2018-01-21T17:18:10.164Z,97142.19
2018-01-21T17:20:38.675Z,97147.16
2018-01-21T17:23:07.364Z,97150.93
2018-01-21T17:25:36.355Z,97140.99
2018-01-21T17:28:05.242Z,97136.50
2018-01-21T17:30:33.753Z,97127.70
2018-01-21T17:33:03.494Z,97135.56
2018-01-21T17:35:34.091Z,97135.75
2018-01-21T17:38:04.607Z,97146.56
2018-01-21T17:40:35.084Z,97136.88
2018-01-21T17:43:05.057Z,97135.49
2018-01-21T17:45:33.071Z,97141.66
2018-01-21T17:48:00.902Z,97135.73
2018-01-21T17:50:28.961Z,97139.53
2018-01-21T17:52:58.564Z,97138.61
2018-01-21T17:55:28.074Z,97144.78
2018-01-21T17:57:55.959Z,97144.78
2018-01-21T18:00:24.580Z,97149.99
2018-01-21T18:02:52.636Z,97157.31
2018-01-21T18:05:21.315Z,97152.84
2018-01-21T18:07:50.238Z,97152.58
2018-01-21T18:10:18.173Z,97158.73
2018-01-21T18:12:46.335Z,97164.37
2018-01-21T18:15:14.242Z,97177.56
2018-01-21T18:17:42.423Z,97177.49
2018-01-21T18:20:10.486Z,97177.01
2018-01-21T18:22:38.342Z,97178.19
2018-01-21T18:25:06.177Z,97175.54
2018-01-21T18:27:34.301Z,97173.41
2018-01-21T18:30:02.172Z,97172.97
2018-01-21T18:32:30.236Z,97168.72
2018-01-21T18:34:58.089Z,97171.03
2018-01-21T18:37:28.134Z,97164.65
2018-01-21T18:39:56.104Z,97182.30
2018-01-21T18:42:25.085Z,97175.53
2018-01-21T18:44:54.673Z,97174.66
2018-01-21T18:47:23.792Z,97165.91
2018-01-21T18:49:52.900Z,97164.24
2018-01-21T18:52:21.516Z,97153.75
2018-01-21T18:54:49.564Z,97152.64
2018-01-21T18:57:17.741Z,97150.94
2018-01-21T18:59:46.880Z,97151.23
2018-01-21T19:02:16.739Z,97145.97
2018-01-21T19:04:46.358Z,97152.95
2018-01-21T19:07:14.742Z,97147.33
2018-01-21T19:09:42.809Z,97136.86
2018-01-21T19:12:10.784Z,97134.04
2018-01-21T19:14:38.855Z,97141.95
2018-01-21T19:17:06.710Z,97149.25
2018-01-21T19:19:34.810Z,97149.18
2018-01-21T19:22:03.609Z,97147.42
2018-01-21T19:24:35.348Z,97148.31
2018-01-21T19:27:04.912Z,97158.22
2018-01-21T19:29:35.696Z,97159.05
2018-01-21T19:32:03.889Z,97162.39
2018-01-21T19:34:31.980Z,97169.69
2018-01-21T19:37:00.145Z,97173.06
2018-01-21T20:04:04.765Z,97180.51
2018-01-21T20:06:34.489Z,97178.16
2018-01-21T20:09:03.465Z,97187.91
2018-01-21T20:11:31.687Z,97184.47
2018-01-21T20:14:01.444Z,97178.17
2018-01-21T20:16:31.565Z,97182.69
2018-01-21T20:19:01.308Z,97173.02
2018-01-21T20:21:29.454Z,97173.68
2018-01-21T20:23:57.594Z,97169.38
2018-01-21T20:26:27.266Z,97171.05
2018-01-21T20:28:56.113Z,97177.12
2018-01-21T20:31:24.838Z,97179.94
2018-01-21T20:33:55.227Z,97182.27
2018-01-21T20:36:23.439Z,97183.78
2018-01-21T20:38:51.620Z,97181.75
2018-01-21T20:41:23.333Z,97185.05
2018-01-21T20:43:55.837Z,97185.35
2018-01-21T20:46:24.034Z,97185.62
2018-01-21T20:48:52.119Z,97179.70
2018-01-21T20:51:28.386Z,97179.18
2018-01-21T21:07:50.562Z,97144.58
2018-01-21T21:10:18.632Z,97145.17
2018-01-21T21:12:46.506Z,97148.09
2018-01-21T21:15:14.469Z,97141.73
2018-01-21T21:17:43.571Z,97139.41
2018-01-21T21:20:11.547Z,97134.77
2018-01-21T21:22:39.831Z,97140.02
2018-01-21T21:25:08.527Z,97129.44
2018-01-21T21:27:38.325Z,97130.22
2018-01-21T21:30:07.503Z,97136.72
2018-01-21T21:32:37.855Z,97139.64
2018-01-21T21:35:05.817Z,97130.64
2018-01-21T21:37:33.593Z,97126.98
2018-01-21T21:40:03.027Z,97121.12
2018-01-21T21:42:30.959Z,97115.14
2018-01-21T21:44:58.753Z,97113.05
2018-01-21T21:47:26.531Z,97105.08
2018-01-21T21:49:54.364Z,97101.28
2018-01-21T21:52:23.907Z,97084.25
2018-01-21T21:54:51.689Z,97087.08
2018-01-21T21:57:19.498Z,97073.40
2018-01-21T21:59:49.337Z,97074.05
2018-01-21T22:02:17.150Z,97074.42
2018-01-21T22:04:44.898Z,97062.80
2018-01-21T22:07:14.243Z,97072.75
2018-01-21T22:09:41.981Z,97066.58
2018-01-21T22:12:09.789Z,97064.91
2018-01-21T22:14:37.499Z,97055.30
2018-01-21T22:17:05.238Z,97049.30
2018-01-21T22:19:32.958Z,97066.58
2018-01-21T22:22:00.732Z,97071.92
2018-01-21T22:24:28.468Z,97069.28
2018-01-21T22:26:58.093Z,97058.87
2018-01-21T22:29:26.039Z,97051.27
2018-01-21T22:31:55.219Z,97064.43
2018-01-21T22:34:24.880Z,97063.59
2018-01-21T22:36:52.530Z,97067.27
2018-01-21T22:39:21.112Z,97053.64
2018-01-21T22:41:50.007Z,97043.27
2018-01-21T22:44:19.479Z,97041.97
2018-01-21T22:46:47.259Z,97039.05
2018-01-21T22:49:15.877Z,97036.56
2018-01-21T22:51:43.549Z,97031.42
2018-01-21T22:54:11.251Z,97017.72
2018-01-21T22:56:40.741Z,97018.04
2018-01-21T22:59:08.479Z,97011.02
2018-01-21T23:01:36.200Z,97008.81
2018-01-21T23:04:04.180Z,97004.66
2018-01-21T23:06:33.810Z,97007.14
2018-01-21T23:09:01.699Z,97007.26
2018-01-21T23:11:29.605Z,96996.09
2018-01-21T23:13:57.908Z,96988.98
2018-01-21T23:16:27.278Z,96980.66
2018-01-21T23:18:54.972Z,96981.03
2018-01-21T23:21:22.784Z,96974.82
2018-01-21T23:23:50.538Z,96973.20
2018-01-21T23:26:18.258Z,96975.77
2018-01-21T23:28:45.982Z,96980.66
2018-01-21T23:31:13.822Z,96976.04
2018-01-21T23:33:41.548Z,96971.14
2018-01-21T23:36:10.084Z,96970.72
2018-01-21T23:38:38.588Z,96966.45
2018-01-21T23:41:06.264Z,96955.63
2018-01-21T23:43:34.149Z,96949.34
2018-01-21T23:46:02.711Z,96940.58
2018-01-21T23:48:32.318Z,96940.58
2018-01-21T23:51:00.102Z,96936.41
2018-01-21T23:53:28.516Z,96928.64
2018-01-21T23:55:56.209Z,96928.28
2018-01-21T23:58:24.008Z,96925.02
